sensor_id;sensor_type;location;lat;lon;timestamp;pressure;altitude;pressure_sealevel;temperature;humidity
50590;BME280;36547;50.514;30.840;2023-07-31T07:18:13;99562.66;;;22.05;76.95
50590;BME280;36547;50.514;30.840;2023-07-31T07:19:16;99551.84;;;22.05;77.08
50590;BME280;36547;50.514;30.840;2023-07-31T07:20:18;99554.54;;;22.05;76.46
50590;BME280;36547;50.514;30.840;2023-07-31T07:21:21;99561.30;;;22.01;76.41
50590;BME280;36547;50.514;30.840;2023-07-31T07:22:23;99564.69;;;22.03;76.24
50590;BME280;36547;50.514;30.840;2023-07-31T07:23:26;99561.98;;;22.03;76.26
50590;BME280;36547;50.514;30.840;2023-07-31T07:24:29;99560.97;;;22.04;76.28
50590;BME280;36547;50.514;30.840;2023-07-31T07:25:32;99559.27;;;22.03;76.13
50590;BME280;36547;50.514;30.840;2023-07-31T07:26:35;99556.41;;;22.04;76.10
50590;BME280;36547;50.514;30.840;2023-07-31T07:27:37;99555.23;;;22.07;76.35
50590;BME280;36547;50.514;30.840;2023-07-31T07:28:39;99559.79;;;22.06;76.36
50590;BME280;36547;50.514;30.840;2023-07-31T07:29:42;99564.36;;;22.06;76.54
50590;BME280;36547;50.514;30.840;2023-07-31T07:30:45;99560.97;;;22.04;76.69
50590;BME280;36547;50.514;30.840;2023-07-31T07:31:48;99553.86;;;22.03;76.95
50590;BME280;36547;50.514;30.840;2023-07-31T07:32:50;99559.95;;;22.05;76.99
50590;BME280;36547;50.514;30.840;2023-07-31T07:33:52;99557.93;;;22.07;77.06
50590;BME280;36547;50.514;30.840;2023-07-31T07:34:55;99554.86;;;22.10;77.03
50590;BME280;36547;50.514;30.840;2023-07-31T07:36:02;99557.57;;;22.10;76.62
50590;BME280;36547;50.514;30.840;2023-07-31T07:37:05;99557.73;;;22.08;76.65
50590;BME280;36547;50.514;30.840;2023-07-31T07:38:08;99555.23;;;22.07;76.98
50590;BME280;36547;50.514;30.840;2023-07-31T07:39:11;99556.89;;;22.08;76.73
50590;BME280;36547;50.514;30.840;2023-07-31T07:40:15;99560.44;;;22.08;76.54
50590;BME280;36547;50.514;30.840;2023-07-31T07:41:17;99558.58;;;22.09;76.78
50590;BME280;36547;50.514;30.840;2023-07-31T07:42:20;99553.85;;;22.11;76.96
50590;BME280;36547;50.514;30.840;2023-07-31T07:43:25;99552.84;;;22.12;77.02
50590;BME280;36547;50.514;30.840;2023-07-31T07:44:27;99549.13;;;22.13;76.59
50590;BME280;36547;50.514;30.840;2023-07-31T07:45:30;99547.27;;;22.13;76.67
50590;BME280;36547;50.514;30.840;2023-07-31T07:46:33;99551.14;;;22.11;76.24
50590;BME280;36547;50.514;30.840;2023-07-31T07:47:35;99546.58;;;22.11;76.49
50590;BME280;36547;50.514;30.840;2023-07-31T07:48:38;99540.48;;;22.09;76.47
50590;BME280;36547;50.514;30.840;2023-07-31T07:49:41;99551.31;;;22.09;76.60
50590;BME280;36547;50.514;30.840;2023-07-31T07:50:44;99554.86;;;22.10;76.53
50590;BME280;36547;50.514;30.840;2023-07-31T07:51:48;99547.75;;;22.09;76.57
50590;BME280;36547;50.514;30.840;2023-07-31T07:52:51;99549.61;;;22.08;76.18
50590;BME280;36547;50.514;30.840;2023-07-31T07:53:54;99552.84;;;22.12;76.48
50590;BME280;36547;50.514;30.840;2023-07-31T07:54:57;99547.09;;;22.15;76.34
50590;BME280;36547;50.514;30.840;2023-07-31T07:55:59;99556.91;;;22.16;76.43
50590;BME280;36547;50.514;30.840;2023-07-31T07:57:03;99541.35;;;22.18;76.10
50590;BME280;36547;50.514;30.840;2023-07-31T07:58:05;99543.37;;;22.16;76.20
50590;BME280;36547;50.514;30.840;2023-07-31T07:59:07;99546.77;;;22.18;76.16
50590;BME280;36547;50.514;30.840;2023-07-31T08:00:13;99550.16;;;22.20;76.27
50590;BME280;36547;50.514;30.840;2023-07-31T08:01:17;99555.57;;;22.20;76.04
50590;BME280;36547;50.514;30.840;2023-07-31T08:02:21;99548.95;;;22.22;75.84
50590;BME280;36547;50.514;30.840;2023-07-31T08:03:24;99547.45;;;22.20;75.62
50590;BME280;36547;50.514;30.840;2023-07-31T08:04:27;99544.37;;;22.23;75.75
50590;BME280;36547;50.514;30.840;2023-07-31T08:05:29;99555.21;;;22.23;75.91
50590;BME280;36547;50.514;30.840;2023-07-31T08:06:33;99546.44;;;22.21;75.68
50590;BME280;36547;50.514;30.840;2023-07-31T08:07:36;99548.10;;;22.22;75.78
50590;BME280;36547;50.514;30.840;2023-07-31T08:08:39;99548.78;;;22.24;76.39
50590;BME280;36547;50.514;30.840;2023-07-31T08:09:41;99549.47;;;22.26;76.22
50590;BME280;36547;50.514;30.840;2023-07-31T08:10:44;99550.31;;;22.27;76.18
50590;BME280;36547;50.514;30.840;2023-07-31T08:11:46;99547.11;;;22.31;76.42
50590;BME280;36547;50.514;30.840;2023-07-31T08:12:49;99545.93;;;22.34;76.03
50590;BME280;36547;50.514;30.840;2023-07-31T08:13:51;99543.05;;;22.35;76.15
50590;BME280;36547;50.514;30.840;2023-07-31T08:14:54;99545.39;;;22.38;76.32
50590;BME280;36547;50.514;30.840;2023-07-31T08:15:57;99541.34;;;22.42;76.41
50590;BME280;36547;50.514;30.840;2023-07-31T08:17:00;99548.12;;;22.46;75.76
50590;BME280;36547;50.514;30.840;2023-07-31T08:18:02;99549.64;;;22.49;75.20
50590;BME280;36547;50.514;30.840;2023-07-31T08:19:05;99543.02;;;22.51;74.81
50590;BME280;36547;50.514;30.840;2023-07-31T08:20:10;99539.80;;;22.56;75.21
50590;BME280;36547;50.514;30.840;2023-07-31T08:21:12;99539.30;;;22.61;74.95
50590;BME280;36547;50.514;30.840;2023-07-31T08:22:17;99539.14;;;22.62;74.80
50590;BME280;36547;50.514;30.840;2023-07-31T08:23:19;99537.75;;;22.66;74.89
50590;BME280;36547;50.514;30.840;2023-07-31T08:24:21;99542.66;;;22.71;74.74
50590;BME280;36547;50.514;30.840;2023-07-31T08:25:24;99548.42;;;22.76;74.52
50590;BME280;36547;50.514;30.840;2023-07-31T08:26:27;99536.23;;;22.80;74.51
50590;BME280;36547;50.514;30.840;2023-07-31T08:27:29;99540.97;;;22.86;74.02
50590;BME280;36547;50.514;30.840;2023-07-31T08:28:31;99532.50;;;22.89;73.57
50590;BME280;36547;50.514;30.840;2023-07-31T08:29:34;99534.70;;;22.94;73.42
50590;BME280;36547;50.514;30.840;2023-07-31T08:30:36;99541.28;;;22.99;73.91
50590;BME280;36547;50.514;30.840;2023-07-31T08:31:38;99537.20;;;23.03;74.04
50590;BME280;36547;50.514;30.840;2023-07-31T08:32:41;99533.98;;;23.08;73.20
50590;BME280;36547;50.514;30.840;2023-07-31T08:33:43;99545.80;;;23.15;73.06
50590;BME280;36547;50.514;30.840;2023-07-31T08:34:46;99542.58;;;23.19;72.17
50590;BME280;36547;50.514;30.840;2023-07-31T08:35:49;99546.81;;;23.22;70.52
50590;BME280;36547;50.514;30.840;2023-07-31T08:36:51;99550.16;;;23.24;70.24
50590;BME280;36547;50.514;30.840;2023-07-31T08:37:54;99556.09;;;23.27;70.70
50590;BME280;36547;50.514;30.840;2023-07-31T08:38:57;99552.36;;;23.28;70.45
50590;BME280;36547;50.514;30.840;2023-07-31T08:39:59;99555.25;;;23.27;70.46
50590;BME280;36547;50.514;30.840;2023-07-31T08:41:05;99555.75;;;23.31;71.08
50590;BME280;36547;50.514;30.840;2023-07-31T08:42:08;99557.27;;;23.33;70.97
50590;BME280;36547;50.514;30.840;2023-07-31T08:43:11;99551.67;;;23.35;71.11
50590;BME280;36547;50.514;30.840;2023-07-31T08:44:15;99556.72;;;23.38;71.16
50590;BME280;36547;50.514;30.840;2023-07-31T08:45:19;99559.77;;;23.43;71.57
50590;BME280;36547;50.514;30.840;2023-07-31T08:46:22;99561.11;;;23.47;70.83
50590;BME280;36547;50.514;30.840;2023-07-31T08:47:27;99553.64;;;23.49;70.08
50590;BME280;36547;50.514;30.840;2023-07-31T08:48:31;99549.56;;;23.53;69.61
50590;BME280;36547;50.514;30.840;2023-07-31T08:49:34;99555.98;;;23.60;69.12
50590;BME280;36547;50.514;30.840;2023-07-31T08:50:38;99560.69;;;23.66;69.92
50590;BME280;36547;50.514;30.840;2023-07-31T08:51:41;99554.56;;;23.72;70.28
50590;BME280;36547;50.514;30.840;2023-07-31T08:52:50;99559.28;;;23.78;70.67
50590;BME280;36547;50.514;30.840;2023-07-31T08:53:53;99550.13;;;23.79;69.92
50590;BME280;36547;50.514;30.840;2023-07-31T08:54:55;99558.55;;;23.84;70.07
50590;BME280;36547;50.514;30.840;2023-07-31T08:55:58;99561.09;;;23.86;69.13
50590;BME280;36547;50.514;30.840;2023-07-31T08:57:01;99556.51;;;23.86;69.24
50590;BME280;36547;50.514;30.840;2023-07-31T08:58:05;99563.63;;;23.87;69.77
50590;BME280;36547;50.514;30.840;2023-07-31T08:59:08;99561.59;;;23.89;69.50
50590;BME280;36547;50.514;30.840;2023-07-31T09:00:11;99550.23;;;23.86;68.27
50590;BME280;36547;50.514;30.840;2023-07-31T09:01:15;99562.95;;;23.85;68.32
50590;BME280;36547;50.514;30.840;2023-07-31T09:02:19;99569.41;;;23.84;68.42
50590;BME280;36547;50.514;30.840;2023-07-31T09:03:22;99558.37;;;23.86;68.63
50590;BME280;36547;50.514;30.840;2023-07-31T09:04:26;99561.27;;;23.84;67.75
50590;BME280;36547;50.514;30.840;2023-07-31T09:05:31;99562.29;;;23.83;67.84
50590;BME280;36547;50.514;30.840;2023-07-31T09:06:34;99571.45;;;23.82;69.00
50590;BME280;36547;50.514;30.840;2023-07-31T09:07:38;99560.59;;;23.82;69.41
50590;BME280;36547;50.514;30.840;2023-07-31T09:08:42;99562.00;;;23.78;68.02
50590;BME280;36547;50.514;30.840;2023-07-31T09:09:45;99550.30;;;23.78;68.14
50590;BME280;36547;50.514;30.840;2023-07-31T09:10:48;99562.17;;;23.77;68.72
50590;BME280;36547;50.514;30.840;2023-07-31T09:11:51;99559.64;;;23.75;69.06
50590;BME280;36547;50.514;30.840;2023-07-31T09:12:55;99557.94;;;23.74;68.40
50590;BME280;36547;50.514;30.840;2023-07-31T09:13:58;99558.30;;;23.71;66.94
50590;BME280;36547;50.514;30.840;2023-07-31T09:15:01;99559.98;;;23.72;67.33
50590;BME280;36547;50.514;30.840;2023-07-31T09:16:04;99562.03;;;23.70;67.08
50590;BME280;36547;50.514;30.840;2023-07-31T09:17:07;99556.77;;;23.69;67.32
50590;BME280;36547;50.514;30.840;2023-07-31T09:18:10;99563.22;;;23.68;67.28
50590;BME280;36547;50.514;30.840;2023-07-31T09:19:13;99568.19;;;23.64;66.96
50590;BME280;36547;50.514;30.840;2023-07-31T09:20:18;99555.98;;;23.60;66.30
50590;BME280;36547;50.514;30.840;2023-07-31T09:21:21;99563.80;;;23.55;65.76
50590;BME280;36547;50.514;30.840;2023-07-31T09:22:34;99572.45;;;23.50;65.43
50590;BME280;36547;50.514;30.840;2023-07-31T09:23:43;99565.69;;;23.46;66.01
50590;BME280;36547;50.514;30.840;2023-07-31T09:24:46;99570.61;;;23.43;65.69
50590;BME280;36547;50.514;30.840;2023-07-31T09:25:49;99573.84;;;23.38;65.17
50590;BME280;36547;50.514;30.840;2023-07-31T09:26:54;99575.91;;;23.36;65.92
50590;BME280;36547;50.514;30.840;2023-07-31T09:28:01;99574.22;;;23.35;65.80
50590;BME280;36547;50.514;30.840;2023-07-31T09:29:05;99574.22;;;23.35;66.45
50590;BME280;36547;50.514;30.840;2023-07-31T09:30:09;99581.50;;;23.35;67.62
50590;BME280;36547;50.514;30.840;2023-07-31T09:31:11;99578.12;;;23.33;66.95
50590;BME280;36547;50.514;30.840;2023-07-31T09:32:16;99578.80;;;23.35;67.28
50590;BME280;36547;50.514;30.840;2023-07-31T09:33:25;99584.00;;;23.44;66.19
50590;BME280;36547;50.514;30.840;2023-07-31T09:35:42;99574.84;;;23.45;66.34
50590;BME280;36547;50.514;30.840;2023-07-31T09:36:47;99575.23;;;23.34;66.51
50590;BME280;36547;50.514;30.840;2023-07-31T09:37:52;99572.18;;;23.37;67.46
50590;BME280;36547;50.514;30.840;2023-07-31T09:38:55;99578.07;;;23.41;67.69
50590;BME280;36547;50.514;30.840;2023-07-31T09:39:57;99569.94;;;23.41;67.95
50590;BME280;36547;50.514;30.840;2023-07-31T09:41:00;99572.30;;;23.44;68.98
50590;BME280;36547;50.514;30.840;2023-07-31T09:42:03;99571.11;;;23.46;69.71
50590;BME280;36547;50.514;30.840;2023-07-31T09:43:08;99576.36;;;23.48;69.35
50590;BME280;36547;50.514;30.840;2023-07-31T09:44:11;99574.50;;;23.48;69.45
50590;BME280;36547;50.514;30.840;2023-07-31T09:45:14;99575.34;;;23.49;69.52
50590;BME280;36547;50.514;30.840;2023-07-31T09:46:20;99579.75;;;23.50;68.48
50590;BME280;36547;50.514;30.840;2023-07-31T09:47:23;99582.64;;;23.48;67.93
50590;BME280;36547;50.514;30.840;2023-07-31T09:48:26;99575.34;;;23.49;67.21
50590;BME280;36547;50.514;30.840;2023-07-31T09:49:28;99580.77;;;23.49;67.27
50590;BME280;36547;50.514;30.840;2023-07-31T09:50:31;99578.05;;;23.49;67.39
50590;BME280;36547;50.514;30.840;2023-07-31T09:51:33;99584.50;;;23.48;66.50
50590;BME280;36547;50.514;30.840;2023-07-31T09:52:38;99571.11;;;23.46;66.50
50590;BME280;36547;50.514;30.840;2023-07-31T09:53:41;99580.09;;;23.47;66.26
50590;BME280;36547;50.514;30.840;2023-07-31T09:54:43;99581.79;;;23.48;65.98
50590;BME280;36547;50.514;30.840;2023-07-31T09:55:46;99580.94;;;23.47;65.29
50590;BME280;36547;50.514;30.840;2023-07-31T09:56:49;99580.09;;;23.47;66.04
50590;BME280;36547;50.514;30.840;2023-07-31T09:57:55;99579.08;;;23.48;66.60
50590;BME280;36547;50.514;30.840;2023-07-31T09:59:00;99575.52;;;23.47;67.09
50590;BME280;36547;50.514;30.840;2023-07-31T10:00:04;99581.96;;;23.46;67.83
50590;BME280;36547;50.514;30.840;2023-07-31T10:01:09;99576.36;;;23.48;68.08
50590;BME280;36547;50.514;30.840;2023-07-31T10:02:15;99579.08;;;23.48;68.23
50590;BME280;36547;50.514;30.840;2023-07-31T10:03:18;99579.08;;;23.48;68.74
50590;BME280;36547;50.514;30.840;2023-07-31T10:04:25;99578.23;;;23.47;68.38
50590;BME280;36547;50.514;30.840;2023-07-31T10:05:31;99573.65;;;23.48;68.50
50590;BME280;36547;50.514;30.840;2023-07-31T10:06:35;99568.23;;;23.48;68.38
50590;BME280;36547;50.514;30.840;2023-07-31T10:07:39;99569.92;;;23.49;68.77
50590;BME280;36547;50.514;30.840;2023-07-31T10:08:46;99571.61;;;23.50;68.92
50590;BME280;36547;50.514;30.840;2023-07-31T10:09:49;99576.69;;;23.53;69.30
50590;BME280;36547;50.514;30.840;2023-07-31T10:10:53;99576.69;;;23.53;68.76
50590;BME280;36547;50.514;30.840;2023-07-31T10:13:14;99569.88;;;23.65;68.80
50590;BME280;36547;50.514;30.840;2023-07-31T10:14:21;99576.69;;;23.53;68.52
50590;BME280;36547;50.514;30.840;2023-07-31T10:15:27;99571.27;;;23.53;68.00
50590;BME280;36547;50.514;30.840;2023-07-31T10:16:32;99570.62;;;23.51;68.30
50590;BME280;36547;50.514;30.840;2023-07-31T10:17:35;99571.61;;;23.50;68.09
50590;BME280;36547;50.514;30.840;2023-07-31T10:18:39;99562.80;;;23.48;68.29
50590;BME280;36547;50.514;30.840;2023-07-31T10:19:45;99569.92;;;23.49;68.37
50590;BME280;36547;50.514;30.840;2023-07-31T10:20:48;99558.22;;;23.48;68.41
50590;BME280;36547;50.514;30.840;2023-07-31T10:21:52;99570.94;;;23.48;68.88
50590;BME280;36547;50.514;30.840;2023-07-31T10:22:55;99565.52;;;23.48;68.83
50590;BME280;36547;50.514;30.840;2023-07-31T10:23:58;99566.36;;;23.48;68.71
50590;BME280;36547;50.514;30.840;2023-07-31T10:25:02;99565.52;;;23.48;68.82
50590;BME280;36547;50.514;30.840;2023-07-31T10:26:05;99569.92;;;23.49;69.04
50590;BME280;36547;50.514;30.840;2023-07-31T10:27:10;99571.11;;;23.46;68.91
50590;BME280;36547;50.514;30.840;2023-07-31T10:28:12;99568.23;;;23.48;68.80
50590;BME280;36547;50.514;30.840;2023-07-31T10:29:15;99567.20;;;23.49;69.62
50590;BME280;36547;50.514;30.840;2023-07-31T10:30:22;99571.61;;;23.50;69.93
50590;BME280;36547;50.514;30.840;2023-07-31T10:31:27;99569.58;;;23.52;70.01
50590;BME280;36547;50.514;30.840;2023-07-31T10:32:30;99571.27;;;23.53;69.60
50590;BME280;36547;50.514;30.840;2023-07-31T10:33:32;99569.58;;;23.52;70.38
50590;BME280;36547;50.514;30.840;2023-07-31T10:34:35;99562.78;;;23.56;70.36
50590;BME280;36547;50.514;30.840;2023-07-31T10:35:39;99558.37;;;23.55;69.57
50590;BME280;36547;50.514;30.840;2023-07-31T10:36:41;99557.18;;;23.57;68.86
50590;BME280;36547;50.514;30.840;2023-07-31T10:37:44;99557.68;;;23.61;69.50
50590;BME280;36547;50.514;30.840;2023-07-31T10:38:49;99558.17;;;23.65;69.14
50590;BME280;36547;50.514;30.840;2023-07-31T10:40:03;99554.62;;;23.64;68.58
50590;BME280;36547;50.514;30.840;2023-07-31T10:41:09;99555.26;;;23.66;69.38
50590;BME280;36547;50.514;30.840;2023-07-31T10:42:12;99552.02;;;23.71;69.35
50590;BME280;36547;50.514;30.840;2023-07-31T10:43:25;99550.83;;;23.73;69.54
50590;BME280;36547;50.514;30.840;2023-07-31T10:44:27;99551.50;;;23.75;69.31
50590;BME280;36547;50.514;30.840;2023-07-31T10:45:35;99556.57;;;23.78;69.16
50590;BME280;36547;50.514;30.840;2023-07-31T10:46:38;99557.24;;;23.80;68.73
50590;BME280;36547;50.514;30.840;2023-07-31T10:47:45;99558.91;;;23.81;68.40
50590;BME280;36547;50.514;30.840;2023-07-31T10:48:56;99565.00;;;23.83;68.51
50590;BME280;36547;50.514;30.840;2023-07-31T10:50:13;99560.59;;;23.82;67.53
50590;BME280;36547;50.514;30.840;2023-07-31T10:51:34;99562.55;;;23.96;67.77
50590;BME280;36547;50.514;30.840;2023-07-31T10:52:38;99567.36;;;23.86;68.56
50590;BME280;36547;50.514;30.840;2023-07-31T10:53:40;99563.63;;;23.87;66.10
50590;BME280;36547;50.514;30.840;2023-07-31T10:54:43;99570.58;;;23.90;65.84
50590;BME280;36547;50.514;30.840;2023-07-31T10:55:46;99569.73;;;23.89;65.69
50590;BME280;36547;50.514;30.840;2023-07-31T10:56:51;99573.78;;;23.93;66.27
50590;BME280;36547;50.514;30.840;2023-07-31T10:59:11;99570.30;;;24.08;65.33
50590;BME280;36547;50.514;30.840;2023-07-31T11:00:28;99575.09;;;23.97;66.00
50590;BME280;36547;50.514;30.840;2023-07-31T11:01:51;99575.77;;;24.00;65.55
50590;BME280;36547;50.514;30.840;2023-07-31T11:03:05;99573.30;;;24.13;65.63
50590;BME280;36547;50.514;30.840;2023-07-31T11:04:14;99567.86;;;24.13;66.02
50590;BME280;36547;50.514;30.840;2023-07-31T11:05:16;99576.08;;;24.05;66.41
50590;BME280;36547;50.514;30.840;2023-07-31T11:06:19;99571.98;;;24.09;66.23
50590;BME280;36547;50.514;30.840;2023-07-31T11:07:23;99570.94;;;24.10;65.56
50590;BME280;36547;50.514;30.840;2023-07-31T11:08:28;99569.27;;;24.09;64.79
50590;BME280;36547;50.514;30.840;2023-07-31T11:09:31;99567.86;;;24.13;65.29
50590;BME280;36547;50.514;30.840;2023-07-31T11:10:34;99571.25;;;24.15;65.11
50590;BME280;36547;50.514;30.840;2023-07-31T11:11:37;99563.28;;;24.13;65.19
50590;BME280;36547;50.514;30.840;2023-07-31T11:12:40;99560.20;;;24.16;65.22
50590;BME280;36547;50.514;30.840;2023-07-31T11:13:51;99568.36;;;24.16;65.23
50590;BME280;36547;50.514;30.840;2023-07-31T11:14:56;99563.77;;;24.17;64.77
50590;BME280;36547;50.514;30.840;2023-07-31T11:16:00;99571.74;;;24.18;64.93
50590;BME280;36547;50.514;30.840;2023-07-31T11:17:08;99570.05;;;24.17;64.24
50590;BME280;36547;50.514;30.840;2023-07-31T11:18:10;99565.82;;;24.15;63.68
50590;BME280;36547;50.514;30.840;2023-07-31T11:19:13;99556.16;;;24.12;62.67
50590;BME280;36547;50.514;30.840;2023-07-31T11:20:17;99561.30;;;24.07;63.06
50590;BME280;36547;50.514;30.840;2023-07-31T11:21:21;99562.69;;;24.03;63.15
50590;BME280;36547;50.514;30.840;2023-07-31T11:22:24;99564.73;;;24.01;63.48
50590;BME280;36547;50.514;30.840;2023-07-31T11:23:26;99565.08;;;23.98;63.18
50590;BME280;36547;50.514;30.840;2023-07-31T11:24:29;99567.62;;;24.00;63.48
50590;BME280;36547;50.514;30.840;2023-07-31T11:25:33;99565.92;;;23.98;63.69
50590;BME280;36547;50.514;30.840;2023-07-31T11:26:35;99567.97;;;23.96;63.19
50590;BME280;36547;50.514;30.840;2023-07-31T11:27:39;99564.62;;;23.94;63.40
50590;BME280;36547;50.514;30.840;2023-07-31T11:28:49;99559.44;;;24.08;64.28
50590;BME280;36547;50.514;30.840;2023-07-31T11:29:52;99559.19;;;23.94;64.53
50590;BME280;36547;50.514;30.840;2023-07-31T11:30:55;99561.52;;;23.97;66.25
50590;BME280;36547;50.514;30.840;2023-07-31T11:31:59;99559.47;;;24.00;65.24
50590;BME280;36547;50.514;30.840;2023-07-31T11:33:03;99563.03;;;24.00;65.54
50590;BME280;36547;50.514;30.840;2023-07-31T11:34:06;99559.30;;;24.01;65.19
50590;BME280;36547;50.514;30.840;2023-07-31T11:35:13;99564.55;;;24.03;64.86
50590;BME280;36547;50.514;30.840;2023-07-31T11:36:18;99557.25;;;24.03;63.90
50590;BME280;36547;50.514;30.840;2023-07-31T11:37:22;99560.64;;;24.05;64.02
50590;BME280;36547;50.514;30.840;2023-07-31T11:39:36;99556.47;;;24.17;63.56
50590;BME280;36547;50.514;30.840;2023-07-31T11:40:43;99556.72;;;24.08;64.76
50590;BME280;36547;50.514;30.840;2023-07-31T11:41:45;99552.98;;;24.09;64.30
50590;BME280;36547;50.514;30.840;2023-07-31T11:42:48;99554.64;;;24.10;64.35
50590;BME280;36547;50.514;30.840;2023-07-31T11:43:58;99541.91;;;24.10;65.60
50590;BME280;36547;50.514;30.840;2023-07-31T11:44:56;99544.84;;;24.09;64.93
50590;BME280;36547;50.514;30.840;2023-07-31T11:46:00;99549.21;;;24.10;65.53
50590;BME280;36547;50.514;30.840;2023-07-31T11:47:03;99539.41;;;24.09;65.93
50590;BME280;36547;50.514;30.840;2023-07-31T11:48:07;99538.34;;;24.10;65.84
50590;BME280;36547;50.514;30.840;2023-07-31T11:49:09;99534.61;;;24.11;65.35
50590;BME280;36547;50.514;30.840;2023-07-31T11:50:11;99534.44;;;24.12;64.77
50590;BME280;36547;50.514;30.840;2023-07-31T11:51:14;99530.69;;;24.13;65.89
50590;BME280;36547;50.514;30.840;2023-07-31T11:52:18;99530.34;;;24.16;66.48
50590;BME280;36547;50.514;30.840;2023-07-31T11:53:26;99522.02;;;24.18;65.53
50590;BME280;36547;50.514;30.840;2023-07-31T11:54:35;99524.32;;;24.29;64.89
50590;BME280;36547;50.514;30.840;2023-07-31T11:55:39;99527.45;;;24.18;64.66
50590;BME280;36547;50.514;30.840;2023-07-31T11:56:43;99523.52;;;24.20;65.03
50590;BME280;36547;50.514;30.840;2023-07-31T11:57:47;99525.39;;;24.20;64.23
50590;BME280;36547;50.514;30.840;2023-07-31T11:58:58;99525.22;;;24.21;63.55
50590;BME280;36547;50.514;30.840;2023-07-31T12:00:01;99531.67;;;24.20;63.83
50590;BME280;36547;50.514;30.840;2023-07-31T12:01:06;99525.22;;;24.21;63.69
50590;BME280;36547;50.514;30.840;2023-07-31T12:02:10;99521.66;;;24.21;63.78
50590;BME280;36547;50.514;30.840;2023-07-31T12:03:12;99526.73;;;24.24;64.39
50590;BME280;36547;50.514;30.840;2023-07-31T12:04:15;99522.98;;;24.25;63.85
50590;BME280;36547;50.514;30.840;2023-07-31T12:05:18;99528.42;;;24.25;63.28
50590;BME280;36547;50.514;30.840;2023-07-31T12:06:21;99521.78;;;24.27;63.37
50590;BME280;36547;50.514;30.840;2023-07-31T12:07:24;99521.42;;;24.30;64.04
50590;BME280;36547;50.514;30.840;2023-07-31T12:08:26;99522.94;;;24.33;64.56
50590;BME280;36547;50.514;30.840;2023-07-31T12:09:29;99518.17;;;24.35;64.71
50590;BME280;36547;50.514;30.840;2023-07-31T12:10:32;99526.98;;;24.37;64.91
50590;BME280;36547;50.514;30.840;2023-07-31T12:11:45;99523.88;;;24.40;64.38
50590;BME280;36547;50.514;30.840;2023-07-31T12:13:08;99515.73;;;24.40;62.99
50590;BME280;36547;50.514;30.840;2023-07-31T12:14:27;99512.47;;;24.45;64.69
50590;BME280;36547;50.514;30.840;2023-07-31T12:15:34;99514.64;;;24.49;64.56
50590;BME280;36547;50.514;30.840;2023-07-31T12:16:43;99515.52;;;24.64;64.33
50590;BME280;36547;50.514;30.840;2023-07-31T12:17:47;99512.02;;;24.56;63.08
50590;BME280;36547;50.514;30.840;2023-07-31T12:18:49;99515.21;;;24.59;63.64
50590;BME280;36547;50.514;30.840;2023-07-31T12:19:52;99521.13;;;24.63;64.44
50590;BME280;36547;50.514;30.840;2023-07-31T12:20:56;99516.18;;;24.66;65.25
50590;BME280;36547;50.514;30.840;2023-07-31T12:21:59;99518.31;;;24.71;65.43
50590;BME280;36547;50.514;30.840;2023-07-31T12:23:02;99515.42;;;24.73;63.19
50590;BME280;36547;50.514;30.840;2023-07-31T12:24:05;99526.47;;;24.71;60.76
50590;BME280;36547;50.514;30.840;2023-07-31T12:25:14;99519.64;;;24.75;62.42
50590;BME280;36547;50.514;30.840;2023-07-31T12:26:16;99520.48;;;24.76;60.55
50590;BME280;36547;50.514;30.840;2023-07-31T12:27:19;99526.77;;;24.76;59.67
50590;BME280;36547;50.514;30.840;2023-07-31T12:28:25;99518.44;;;24.78;59.30
50590;BME280;36547;50.514;30.840;2023-07-31T12:29:35;99516.38;;;24.80;60.54
50590;BME280;36547;50.514;30.840;2023-07-31T12:30:40;99516.38;;;24.80;61.29
50590;BME280;36547;50.514;30.840;2023-07-31T12:31:43;99514.95;;;24.84;61.83
50590;BME280;36547;50.514;30.840;2023-07-31T12:32:46;99524.80;;;24.85;59.57
50590;BME280;36547;50.514;30.840;2023-07-31T12:33:50;99527.52;;;24.85;58.76
50590;BME280;36547;50.514;30.840;2023-07-31T12:34:52;99521.05;;;24.86;58.04
50590;BME280;36547;50.514;30.840;2023-07-31T12:35:57;99522.73;;;24.87;56.93
50590;BME280;36547;50.514;30.840;2023-07-31T12:37:00;99522.56;;;24.88;57.13
50590;BME280;36547;50.514;30.840;2023-07-31T12:38:03;99520.50;;;24.90;57.83
50590;BME280;36547;50.514;30.840;2023-07-31T12:39:05;99528.47;;;24.92;58.88
50590;BME280;36547;50.514;30.840;2023-07-31T12:40:10;99527.45;;;24.93;56.87
50590;BME280;36547;50.514;30.840;2023-07-31T12:41:12;99530.86;;;24.95;56.52
50590;BME280;36547;50.514;30.840;2023-07-31T12:42:19;99523.73;;;24.94;56.02
50590;BME280;36547;50.514;30.840;2023-07-31T12:43:22;99525.42;;;24.95;57.51
50590;BME280;36547;50.514;30.840;2023-07-31T12:44:25;99527.08;;;24.96;58.02
50590;BME280;36547;50.514;30.840;2023-07-31T12:45:27;99523.33;;;24.97;58.70
50590;BME280;36547;50.514;30.840;2023-07-31T12:46:30;99522.48;;;24.96;58.91
50590;BME280;36547;50.514;30.840;2023-07-31T12:47:32;99530.86;;;24.95;57.59
50590;BME280;36547;50.514;30.840;2023-07-31T12:48:36;99515.39;;;24.95;57.99
50590;BME280;36547;50.514;30.840;2023-07-31T12:49:40;99518.11;;;24.95;58.12
50590;BME280;36547;50.514;30.840;2023-07-31T12:50:43;99517.89;;;24.97;58.45
50590;BME280;36547;50.514;30.840;2023-07-31T12:51:45;99515.39;;;24.95;58.24
50590;BME280;36547;50.514;30.840;2023-07-31T12:52:47;99513.70;;;24.94;56.59
50590;BME280;36547;50.514;30.840;2023-07-31T12:53:50;99514.03;;;24.91;55.50
50590;BME280;36547;50.514;30.840;2023-07-31T12:54:52;99519.14;;;24.94;56.60
50590;BME280;36547;50.514;30.840;2023-07-31T12:55:56;99525.42;;;24.95;57.83
50590;BME280;36547;50.514;30.840;2023-07-31T12:56:59;99521.64;;;24.96;58.49
50590;BME280;36547;50.514;30.840;2023-07-31T12:58:01;99521.01;;;24.94;55.31